Chute-aux-Outardes, Canada
Current Conditions -  °F | °C
As of 7:00 PM on Sunday 23 Nov 2014 (Local Time) from CYBC Reporting Station
Overcast Overcast  
Wind Chill: 28°   Ceiling: 4800
Heat Index: 28°   Visibility: 9mi
Dew Point: 21°   Wind: 2mph
Humidity: 74%   Direction: 80°E
Pressure: 30.06"   Gusts: NA
Location:  49.13°N, 68.39°W
Report Text: CYBC 240000Z AUTO 08002KT 9SM OVC048 M02/M06 A3006 RMK SLP180
Loading
Personal Weather Stations






























Interactive Weather Map New forecast layout! Learn more

10-Day Weather Forecast

Advertisements
Track Severe Weather on mobile